Time;durP1;ratioP1;P1;durP2;ratioP2;P2;SDS_P1;SDS_P2;PMS_P1;PMS_P2;Temp;Humidity;BMP_temperature;BMP_pressure;BME280_temperature;BME280_humidity;BME280_pressure;Samples;Min_cycle;Max_cycle;Signal;HPM_P1;HPM_P2
2021/08/01 00:01:03;;;;;;;15.55;7.40;;;;;;;16.50;65.71;99351.72;5032789;28;20041;-82
2021/08/01 00:03:30;;;;;;;10.32;7.80;;;;;;;16.47;66.06;99359.72;5014248;28;20045;-78
2021/08/01 00:05:56;;;;;;;12.70;7.72;;;;;;;16.32;65.84;99338.44;5031270;28;20049;-81
2021/08/01 00:08:23;;;;;;;13.23;7.72;;;;;;;16.40;65.90;99353.88;5013867;28;20171;-83
2021/08/01 00:10:50;;;;;;;9.35;7.43;;;;;;;16.45;66.41;99367.66;5010524;28;20064;-79
2021/08/01 09:54:48;;;;;;;7.95;3.90;;;;;;;27.57;35.91;99456.34;5084976;28;20539;-84
2021/08/01 09:57:18;;;;;;;6.75;3.80;;;;;;;27.57;36.17;99465.22;5096082;28;20039;-81
2021/08/01 09:59:47;;;;;;;7.50;4.13;;;;;;;27.34;36.31;99427.91;5086472;28;20522;-80
2021/08/01 10:02:13;;;;;;;11.30;4.85;;;;;;;27.49;36.24;99471.22;5067184;28;20036;-79
2021/08/01 10:04:40;;;;;;;10.77;4.25;;;;;;;27.20;37.04;99450.44;5058442;28;20052;-82
2021/08/01 10:07:10;;;;;;;7.20;4.45;;;;;;;27.19;37.34;99469.28;5063958;28;20066;-82
2021/08/01 10:09:38;;;;;;;7.00;4.60;;;;;;;26.77;37.75;99421.97;5079590;28;20062;-84
2021/08/01 10:12:05;;;;;;;5.22;4.43;;;;;;;26.89;38.42;99460.19;5074514;28;20039;-81
2021/08/01 10:14:31;;;;;;;7.57;4.25;;;;;;;26.84;38.64;99481.91;5109406;28;20165;-84
2021/08/01 10:16:58;;;;;;;10.45;4.50;;;;;;;26.70;39.00;99487.50;5086574;28;20443;-84
2021/08/01 10:19:24;;;;;;;8.90;4.20;;;;;;;26.61;39.45;99492.63;5085887;28;20051;-85
2021/08/01 10:21:54;;;;;;;10.50;4.55;;;;;;;26.23;39.40;99445.91;5068936;28;20035;-82
2021/08/01 10:24:26;;;;;;;7.88;4.55;;;;;;;26.63;40.24;99495.16;5086144;28;20043;-84
2021/08/01 10:26:55;;;;;;;8.68;4.40;;;;;;;26.53;40.51;99475.53;5069744;28;20082;-80
2021/08/01 10:29:31;;;;;;;12.68;5.05;;;;;;;26.01;40.96;99430.72;5094457;28;20040;-85
2021/08/01 10:32:05;;;;;;;11.90;4.68;;;;;;;26.12;41.31;99465.41;5072340;28;20071;-80
2021/08/01 10:35:02;;;;;;;8.25;5.10;;;;;;;26.23;41.40;99469.88;5073251;28;20231;-83
2021/08/01 10:37:44;;;;;;;5.55;4.32;;;;;;;26.22;41.53;99462.88;5073365;28;20420;-84
2021/08/01 10:40:19;;;;;;;12.15;5.28;;;;;;;25.74;42.16;99401.78;5092155;28;20038;-83
2021/08/01 10:42:50;;;;;;;7.40;4.93;;;;;;;26.22;42.38;99486.00;5089910;28;20040;-81
2021/08/01 10:45:20;;;;;;;12.05;5.28;;;;;;;25.97;42.27;99434.59;5072795;28;20046;-81
2021/08/01 10:47:51;;;;;;;11.68;5.20;;;;;;;26.15;42.72;99448.31;5090166;28;20055;-83
2021/08/01 10:50:24;;;;;;;7.65;4.90;;;;;;;26.31;43.17;99432.78;5091815;28;20071;-84
2021/08/01 10:53:19;;;;;;;6.85;4.88;;;;;;;26.03;42.62;99322.19;5076512;28;20047;-83
2021/08/01 10:56:16;;;;;;;9.30;5.45;;;;;;;26.94;42.70;99430.44;5079075;28;20039;-83
2021/08/01 10:58:42;;;;;;;8.65;4.88;;;;;;;26.84;42.30;99371.63;5080105;28;20044;-83
2021/08/01 11:01:09;;;;;;;6.97;5.20;;;;;;;27.12;42.28;99374.66;5081681;28;20093;-84
2021/08/01 11:03:37;;;;;;;5.80;4.90;;;;;;;27.03;42.05;99318.38;5080705;28;20063;-83
2021/08/01 11:06:04;;;;;;;6.15;5.55;;;;;;;27.33;41.44;99343.44;5096393;28;20035;-83
2021/08/01 11:08:31;;;;;;;8.40;5.50;;;;;;;27.69;41.44;99393.00;5095770;28;20158;-84
2021/08/01 11:11:19;;;;;;;7.35;5.03;;;;;;;27.62;41.19;99404.22;5122173;28;20036;-83
2021/08/01 11:13:49;;;;;;;14.10;10.25;;;;;;;26.72;41.96;99293.44;5087808;28;20043;-82
2021/08/01 11:16:41;;;;;;;8.63;5.40;;;;;;;26.79;42.88;99379.19;5113819;28;20419;-80
2021/08/01 11:19:42;;;;;;;8.10;5.55;;;;;;;26.40;44.09;99372.50;5094956;28;20131;-85
2021/08/01 11:22:40;;;;;;;6.80;6.10;;;;;;;26.07;45.11;99382.25;5034356;28;20067;-85
2021/08/01 11:25:25;;;;;;;8.45;5.35;;;;;;;25.34;45.50;99307.19;5113881;28;20458;-82
2021/08/01 11:28:09;;;;;;;6.13;5.40;;;;;;;25.37;47.18;99360.19;5074865;28;20131;-84
2021/08/01 11:30:53;;;;;;;10.27;5.78;;;;;;;25.26;47.90;99372.56;5075162;28;20032;-81
2021/08/01 11:33:35;;;;;;;7.65;5.88;;;;;;;25.13;47.96;99371.78;5075324;28;20123;-83
2021/08/01 11:36:13;;;;;;;8.05;6.28;;;;;;;25.07;48.34;99373.09;5090864;28;20135;-81
2021/08/01 11:38:48;;;;;;;12.85;6.82;;;;;;;25.06;48.88;99378.53;5074414;28;20040;-84
2021/08/01 11:41:39;;;;;;;9.18;5.95;;;;;;;24.76;48.92;99329.34;5074627;28;20067;-83
2021/08/01 11:44:06;;;;;;;8.57;6.10;;;;;;;24.89;49.31;99361.22;5074202;28;20035;-82
2021/08/01 11:47:05;;;;;;;7.75;5.93;;;;;;;25.01;49.53;99392.19;5092429;28;20051;-83
2021/08/01 11:49:57;;;;;;;8.82;5.55;;;;;;;24.99;49.57;99399.44;5076022;28;20070;-82
2021/08/01 11:52:42;;;;;;;8.05;5.72;;;;;;;24.93;50.06;99403.41;5089407;28;20048;-80
2021/08/01 11:55:09;;;;;;;9.55;6.05;;;;;;;24.77;49.85;99401.06;5093578;28;20082;-80
2021/08/01 11:57:37;;;;;;;11.32;6.53;;;;;;;24.65;50.37;99388.66;5073335;28;20126;-82
2021/08/01 12:00:04;;;;;;;10.88;8.85;;;;;;;24.75;50.85;99428.75;5090874;28;20046;-77
2021/08/01 12:02:31;;;;;;;10.98;7.93;;;;;;;24.54;51.96;99445.28;5090749;28;20057;-80
2021/08/01 12:04:59;;;;;;;8.52;6.82;;;;;;;24.44;52.53;99460.19;5090404;28;20403;-80
2021/08/01 12:07:42;;;;;;;8.73;7.30;;;;;;;24.24;53.02;99459.00;5073516;28;20074;-79
2021/08/01 12:10:15;;;;;;;7.70;6.70;;;;;;;23.98;54.26;99443.09;5108660;28;20500;-80
2021/08/01 12:12:41;;;;;;;10.20;7.05;;;;;;;23.88;54.42;99464.09;5108490;28;20451;-80
2021/08/01 12:15:07;;;;;;;13.40;8.35;;;;;;;23.43;55.03;99459.19;5112002;28;20043;-78
2021/08/01 12:17:37;;;;;;;10.70;8.30;;;;;;;22.86;57.61;99474.41;5088638;28;20061;-78
2021/08/01 12:20:04;;;;;;;9.27;8.38;;;;;;;22.40;59.54;99460.50;5095689;28;20077;-78
2021/08/01 12:22:31;;;;;;;14.38;9.75;;;;;;;21.94;60.64;99453.66;5090959;28;20066;-78
2021/08/01 12:24:59;;;;;;;12.55;8.80;;;;;;;21.35;61.74;99461.56;5111035;28;20067;-78
2021/08/01 12:27:30;;;;;;;20.95;10.75;;;;;;;20.58;64.01;99435.09;5090568;28;20047;-78
2021/08/01 12:30:20;;;;;;;16.38;11.10;;;;;;;20.08;65.81;99463.38;5056004;28;20134;-80
2021/08/01 12:32:50;;;;;;;18.77;10.98;;;;;;;19.52;67.83;99402.91;5090857;28;20718;-79
2021/08/01 12:35:19;;;;;;;15.43;13.03;;;;;;;19.34;68.99;99396.78;5091204;28;20455;-79
2021/08/01 12:38:02;;;;;;;17.13;13.18;;;;;;;19.33;70.04;99405.63;5090019;28;20368;-80
2021/08/01 12:40:34;;;;;;;16.08;11.20;;;;;;;18.96;70.62;99358.28;5108052;28;20539;-80
2021/08/01 12:43:04;;;;;;;14.18;10.82;;;;;;;19.17;71.13;99406.41;5073173;28;20036;-78
2021/08/01 12:45:41;;;;;;;11.38;10.18;;;;;;;19.14;71.84;99413.63;5089645;28;20047;-80
2021/08/01 12:48:16;;;;;;;12.13;9.27;;;;;;;18.94;72.47;99392.56;5107576;28;20054;-78
2021/08/01 12:50:48;;;;;;;15.60;9.73;;;;;;;18.95;73.07;99418.03;5089756;28;20036;-76
2021/08/01 12:53:15;;;;;;;11.20;8.98;;;;;;;18.81;73.42;99407.31;5114487;28;20518;-78
2021/08/01 12:55:43;;;;;;;8.93;8.07;;;;;;;18.71;73.79;99404.28;5111730;28;20035;-78
2021/08/01 12:58:11;;;;;;;12.65;9.48;;;;;;;18.60;74.56;99385.47;5094667;28;20604;-78
2021/08/01 13:00:55;;;;;;;12.15;9.35;;;;;;;18.72;74.61;99381.41;5105227;28;20067;-80
2021/08/01 13:03:30;;;;;;;13.48;9.30;;;;;;;18.64;75.18;99365.97;5091883;28;20047;-81
2021/08/01 13:05:56;;;;;;;10.90;9.15;;;;;;;18.84;75.55;99383.44;5110197;28;20040;-78
2021/08/01 13:08:48;;;;;;;15.32;9.45;;;;;;;18.91;75.90;99379.53;5109449;28;20028;-79
2021/08/01 13:11:15;;;;;;;;;;;;;;;18.89;76.26;99377.94;5074623;28;20047;-77
2021/08/01 13:13:55;;;;;;;13.40;9.73;;;;;;;18.93;76.90;99374.22;5109114;28;19920;-80
2021/08/01 13:16:21;;;;;;;10.77;9.35;;;;;;;18.99;77.73;99381.81;5090246;28;20154;-78
2021/08/01 13:18:48;;;;;;;13.27;10.10;;;;;;;19.04;78.17;99360.53;5092501;28;20035;-78
2021/08/01 13:21:15;;;;;;;13.57;11.35;;;;;;;19.29;78.66;99369.81;5092505;28;20062;-78
2021/08/01 13:23:44;;;;;;;14.02;9.35;;;;;;;19.16;78.70;99322.97;5110101;28;20091;-77
2021/08/01 13:26:29;;;;;;;15.77;12.07;;;;;;;19.48;78.91;99354.72;5115640;28;20066;-78
2021/08/01 13:28:58;;;;;;;9.32;7.57;;;;;;;19.41;78.79;99350.69;5092600;28;20082;-77
2021/08/01 13:31:32;;;;;;;9.98;8.02;;;;;;;19.47;79.08;99366.22;5058198;28;20039;-78
2021/08/01 13:34:06;;;;;;;12.65;9.32;;;;;;;19.54;79.43;99364.94;5072910;28;20045;-77
2021/08/01 13:36:51;;;;;;;8.52;7.40;;;;;;;19.59;79.54;99383.19;5073562;28;20036;-77
2021/08/01 13:39:21;;;;;;;9.98;8.20;;;;;;;19.62;79.79;99368.97;5057577;28;20172;-80
2021/08/01 13:42:09;;;;;;;9.00;7.60;;;;;;;19.63;79.72;99373.31;5074039;28;20074;-79
2021/08/01 13:44:59;;;;;;;11.77;7.97;;;;;;;19.70;79.88;99364.13;5073602;28;20178;-77
2021/08/01 13:47:28;;;;;;;9.52;7.75;;;;;;;19.70;79.42;99353.56;5060386;28;20631;-77
2021/08/01 13:49:58;;;;;;;15.27;10.95;;;;;;;19.67;79.87;99351.94;5072373;28;20093;-79
2021/08/01 13:52:27;;;;;;;9.70;8.50;;;;;;;19.64;79.76;99328.34;5072404;28;20036;-76
2021/08/01 13:54:54;;;;;;;10.07;8.95;;;;;;;19.71;79.88;99339.44;5056906;28;20059;-77
2021/08/01 13:57:23;;;;;;;11.75;9.90;;;;;;;19.81;80.50;99340.63;5073801;28;20039;-77
2021/08/01 13:59:54;;;;;;;10.23;9.10;;;;;;;20.02;80.54;99338.66;5074112;28;20039;-78
2021/08/01 14:02:22;;;;;;;9.98;8.75;;;;;;;20.23;80.38;99329.59;5089789;28;20036;-76
2021/08/01 14:04:48;;;;;;;9.23;8.15;;;;;;;20.44;80.10;99336.28;5094076;28;20035;-77
2021/08/01 14:07:14;;;;;;;11.38;8.43;;;;;;;20.46;80.14;99329.13;5112580;28;20031;-75
2021/08/01 14:09:40;;;;;;;9.48;7.72;;;;;;;20.59;80.28;99342.50;5076314;28;20063;-76
2021/08/01 14:12:07;;;;;;;9.85;8.85;;;;;;;20.62;80.35;99338.84;5091938;28;20040;-78
2021/08/01 14:14:33;;;;;;;11.07;9.13;;;;;;;20.77;80.33;99348.53;5075015;28;20169;-76
2021/08/01 14:17:06;;;;;;;12.13;8.48;;;;;;;20.80;80.13;99333.44;5092690;28;20039;-78
2021/08/01 14:19:33;;;;;;;11.38;8.98;;;;;;;21.06;80.69;99339.81;5094955;28;20039;-78
2021/08/01 14:22:00;;;;;;;9.70;8.70;;;;;;;21.09;80.22;99326.41;5106555;28;20040;-77
2021/08/01 14:24:26;;;;;;;12.48;8.90;;;;;;;21.18;80.31;99332.94;5096481;28;20115;-78
2021/08/01 14:26:53;;;;;;;12.38;9.68;;;;;;;21.23;79.78;99330.88;5073262;28;20036;-78
2021/08/01 14:29:22;;;;;;;10.10;8.40;;;;;;;21.25;80.35;99339.56;5071825;28;20574;-79
2021/08/01 14:31:51;;;;;;;9.77;8.75;;;;;;;21.27;79.90;99326.25;5095866;28;20036;-76
2021/08/01 14:34:25;;;;;;;15.05;10.63;;;;;;;20.95;79.98;99269.06;5060127;28;20181;-78
2021/08/01 14:36:54;;;;;;;12.82;8.70;;;;;;;21.31;79.86;99330.41;5089609;28;20039;-78
2021/08/01 14:39:21;;;;;;;12.20;9.38;;;;;;;21.30;80.05;99308.38;5089332;28;20040;-77
2021/08/01 14:41:51;;;;;;;10.57;9.38;;;;;;;21.52;80.17;99309.69;5089910;28;20039;-79
2021/08/01 14:44:19;;;;;;;10.43;9.07;;;;;;;21.75;80.19;99320.66;5089527;28;20036;-79
2021/08/01 14:46:45;;;;;;;10.75;9.10;;;;;;;21.76;80.03;99295.88;5071007;28;20065;-78
2021/08/01 14:49:28;;;;;;;9.30;8.38;;;;;;;21.95;79.42;99306.16;5070538;28;20040;-78
2021/08/01 14:54:43;;;;;;;11.65;8.45;;;;;;;21.97;79.17;99302.47;5105684;27;20112;-79
2021/08/01 14:57:37;;;;;;;9.05;8.13;;;;;;;21.95;78.77;99307.03;5129370;27;20576;-78
2021/08/01 15:00:10;;;;;;;12.10;8.90;;;;;;;21.90;78.78;99298.53;5092908;27;20491;-79
2021/08/01 15:02:54;;;;;;;10.88;8.82;;;;;;;22.02;78.75;99296.03;5090711;28;20039;-78
2021/08/01 15:05:36;;;;;;;12.30;8.93;;;;;;;22.14;78.72;99297.03;5090229;28;20043;-78
2021/08/01 15:08:10;;;;;;;10.45;9.32;;;;;;;22.21;78.81;99290.38;5073868;28;20653;-79
2021/08/01 15:10:39;;;;;;;9.70;8.70;;;;;;;22.26;78.48;99286.47;5057397;28;20054;-80
2021/08/01 15:13:12;;;;;;;11.68;8.88;;;;;;;22.22;78.10;99274.38;5093156;28;20047;-79
2021/08/01 15:15:40;;;;;;;11.60;8.75;;;;;;;22.20;78.51;99259.56;5059495;28;20148;-78
2021/08/01 15:18:17;;;;;;;11.48;9.13;;;;;;;22.27;78.08;99274.94;5093924;28;20047;-78
2021/08/01 15:20:43;;;;;;;13.23;9.05;;;;;;;22.18;78.04;99262.28;5076480;28;20062;-81
2021/08/01 15:23:16;;;;;;;10.20;8.88;;;;;;;22.16;78.11;99264.22;5076268;28;20099;-80
2021/08/01 15:25:50;;;;;;;12.50;9.77;;;;;;;22.20;78.17;99278.94;5092370;28;20043;-80
2021/08/01 15:28:17;;;;;;;11.60;9.68;;;;;;;22.17;78.38;99265.03;5051419;28;20406;-78
2021/08/01 15:30:44;;;;;;;11.18;8.80;;;;;;;22.17;78.29;99267.69;5038239;28;20062;-79
2021/08/01 15:33:13;;;;;;;13.88;9.23;;;;;;;22.06;78.48;99250.72;5071955;28;20487;-79
2021/08/01 15:35:44;;;;;;;11.55;9.75;;;;;;;22.24;78.63;99277.78;5056189;28;20119;-79
2021/08/01 15:38:14;;;;;;;13.32;9.85;;;;;;;22.20;78.53;99248.94;5072042;28;20040;-77
2021/08/01 15:40:40;;;;;;;13.40;9.63;;;;;;;22.41;78.46;99270.50;5037965;28;20062;-81
2021/08/01 15:43:07;;;;;;;11.70;9.43;;;;;;;22.49;78.47;99278.00;5090232;28;20035;-79
2021/08/01 15:45:34;;;;;;;11.45;9.27;;;;;;;22.44;78.08;99248.31;5093453;28;20036;-80
2021/08/01 15:48:01;;;;;;;11.07;9.00;;;;;;;22.60;78.08;99264.03;5084300;28;20078;-81
2021/08/01 15:50:28;;;;;;;13.45;9.73;;;;;;;22.61;77.95;99263.06;5039957;28;20692;-80
2021/08/01 15:53:01;;;;;;;11.40;10.07;;;;;;;22.67;77.68;99270.59;5095343;28;20062;-80
2021/08/01 15:55:38;;;;;;;11.70;9.63;;;;;;;22.61;77.56;99257.78;5076232;28;20043;-79
2021/08/01 15:58:13;;;;;;;13.02;9.95;;;;;;;22.48;77.41;99242.69;5093278;28;20138;-79
2021/08/01 16:00:41;;;;;;;10.77;9.48;;;;;;;22.61;77.17;99279.00;5113631;28;20075;-78
2021/08/01 16:03:17;;;;;;;11.98;9.88;;;;;;;22.58;77.34;99272.06;5127973;28;20035;-79
2021/08/01 16:05:44;;;;;;;14.82;9.65;;;;;;;22.58;77.18;99271.22;5111969;28;20040;-79
2021/08/01 16:08:30;;;;;;;11.73;9.27;;;;;;;22.55;77.01;99261.66;5078019;28;20035;-80
2021/08/01 16:11:01;;;;;;;15.38;10.02;;;;;;;22.48;77.01;99265.69;5093561;28;20135;-78
2021/08/01 16:13:34;;;;;;;11.57;10.32;;;;;;;22.50;76.74;99275.25;5108868;28;20039;-79
2021/08/01 16:16:02;;;;;;;13.07;9.70;;;;;;;22.49;76.77;99265.59;5109204;28;20106;-79
2021/08/01 16:18:34;;;;;;;11.65;9.80;;;;;;;22.36;76.67;99257.56;5109248;28;20093;-80
2021/08/01 16:21:00;;;;;;;14.82;10.10;;;;;;;22.23;76.53;99233.69;5075393;28;20039;-78
2021/08/01 16:23:27;;;;;;;11.95;9.75;;;;;;;22.36;76.48;99264.69;5079835;28;20024;-77
2021/08/01 16:25:55;;;;;;;13.32;10.10;;;;;;;22.45;76.66;99277.34;5077899;28;20134;-78
2021/08/01 16:28:21;;;;;;;12.05;9.30;;;;;;;22.43;76.07;99276.59;5070812;28;20040;-79
2021/08/01 16:30:49;;;;;;;12.32;10.10;;;;;;;22.45;76.38;99282.66;5094561;28;20093;-78
2021/08/01 16:33:16;;;;;;;15.02;10.27;;;;;;;22.43;76.14;99289.84;5053270;28;20040;-78
2021/08/01 16:35:42;;;;;;;12.20;9.45;;;;;;;22.33;76.02;99275.50;5069466;28;20484;-81
2021/08/01 16:38:08;;;;;;;12.82;10.43;;;;;;;22.38;75.81;99291.94;5053271;28;20047;-79
2021/08/01 16:40:54;;;;;;;11.32;9.63;;;;;;;22.22;76.01;99268.25;5088667;28;20044;-77
2021/08/01 16:43:24;;;;;;;13.48;11.30;;;;;;;22.27;76.07;99284.69;5088233;28;20067;-78
2021/08/01 16:45:55;;;;;;;13.32;10.50;;;;;;;22.22;76.08;99305.34;5088336;28;20040;-78
2021/08/01 16:48:30;;;;;;;11.23;10.02;;;;;;;22.15;76.13;99302.25;5069808;28;20040;-80
2021/08/01 16:51:02;;;;;;;12.93;10.23;;;;;;;22.08;76.36;99295.63;5054130;28;20044;-78
2021/08/01 16:53:57;;;;;;;11.25;10.02;;;;;;;21.99;76.28;99298.88;5097114;28;20159;-78
2021/08/01 16:56:34;;;;;;;12.73;10.65;;;;;;;22.02;76.18;99306.63;5076079;28;20042;-78
2021/08/01 16:59:02;;;;;;;13.52;10.55;;;;;;;21.96;76.21;99300.75;5076165;28;20035;-80
2021/08/01 17:01:37;;;;;;;16.60;11.45;;;;;;;21.97;76.32;99302.47;5111192;28;20046;-82
2021/08/01 17:04:34;;;;;;;14.57;11.73;;;;;;;21.95;76.74;99301.75;5077292;28;20080;-80
2021/08/01 17:07:02;;;;;;;13.13;11.77;;;;;;;21.94;76.52;99307.97;5112219;28;20084;-79
2021/08/01 17:09:30;;;;;;;16.08;11.77;;;;;;;21.91;76.54;99305.53;5113086;28;20561;-78
2021/08/01 17:12:11;;;;;;;15.48;12.45;;;;;;;21.83;76.69;99296.38;5112231;28;20057;-79
2021/08/01 17:14:50;;;;;;;14.98;13.20;;;;;;;21.85;76.90;99305.06;5113894;28;20588;-77
2021/08/01 17:17:20;;;;;;;16.80;13.48;;;;;;;21.76;76.69;99295.88;5080411;28;20039;-79
2021/08/01 17:19:47;;;;;;;19.20;15.02;;;;;;;21.70;77.23;99299.78;5096950;28;20032;-78
2021/08/01 17:22:18;;;;;;;17.75;14.50;;;;;;;21.57;77.04;99294.38;5096942;28;20108;-78
2021/08/01 17:24:49;;;;;;;15.35;13.38;;;;;;;21.58;77.15;99308.47;5117684;28;20059;-77
2021/08/01 17:27:17;;;;;;;16.25;14.52;;;;;;;21.52;77.45;99312.34;5097877;28;20442;-79
2021/08/01 17:29:44;;;;;;;16.60;14.48;;;;;;;21.49;77.79;99318.69;5085588;28;20670;-78
2021/08/01 17:32:22;;;;;;;18.25;14.18;;;;;;;21.45;77.72;99319.81;5105793;28;20036;-80
2021/08/01 17:34:54;;;;;;;17.02;15.25;;;;;;;21.34;77.84;99304.59;5116101;28;20036;-80
2021/08/01 17:37:24;;;;;;;17.95;14.55;;;;;;;21.34;77.77;99315.19;5096324;28;20107;-80
2021/08/01 17:39:54;;;;;;;16.75;14.98;;;;;;;21.22;78.16;99289.50;5114024;28;20370;-77
2021/08/01 17:42:24;;;;;;;19.80;15.45;;;;;;;21.25;78.10;99307.81;5076988;28;20027;-78
2021/08/01 17:44:52;;;;;;;17.58;15.15;;;;;;;21.19;78.42;99310.84;5094530;28;20043;-79
2021/08/01 17:47:29;;;;;;;19.98;16.02;;;;;;;21.16;78.86;99316.31;5062576;28;20035;-77
2021/08/01 17:49:56;;;;;;;23.20;16.80;;;;;;;21.10;78.54;99320.19;5101327;28;20045;-81
2021/08/01 17:52:27;;;;;;;21.08;16.83;;;;;;;21.05;79.00;99309.03;5114400;28;20050;-78
2021/08/01 17:54:56;;;;;;;21.70;16.42;;;;;;;21.06;79.08;99314.25;5128107;28;20047;-80
2021/08/01 17:57:24;;;;;;;29.23;22.45;;;;;;;21.04;78.97;99317.91;5067976;28;20043;-78
2021/08/01 17:59:51;;;;;;;58.78;33.33;;;;;;;21.01;79.17;99316.31;5124686;28;20039;-78
2021/08/01 18:02:21;;;;;;;45.50;28.20;;;;;;;20.88;79.31;99304.75;5112467;28;20031;-77
2021/08/01 18:04:46;;;;;;;44.00;25.88;;;;;;;20.88;79.54;99316.19;5110500;28;20511;-79
2021/08/01 18:07:46;;;;;;;58.08;33.28;;;;;;;20.81;79.56;99320.13;5128781;28;20095;-78
2021/08/01 18:10:16;;;;;;;57.13;33.38;;;;;;;20.79;79.42;99321.16;5123374;28;20080;-79
2021/08/01 18:13:00;;;;;;;62.25;32.85;;;;;;;20.75;79.89;99326.59;5112653;28;20070;-78
2021/08/01 18:15:28;;;;;;;61.65;34.30;;;;;;;20.68;79.92;99322.59;5078586;28;20047;-79
2021/08/01 18:17:56;;;;;;;69.70;37.15;;;;;;;20.60;79.98;99328.34;5060235;28;20393;-79
2021/08/01 18:20:22;;;;;;;84.78;44.13;;;;;;;20.68;80.22;99348.19;5096197;28;20039;-79
2021/08/01 18:22:49;;;;;;;108.63;55.08;;;;;;;20.67;80.21;99347.31;5093189;28;20050;-78
2021/08/01 18:25:18;;;;;;;87.28;45.47;;;;;;;20.61;80.20;99345.91;5110490;28;20032;-78
2021/08/01 18:27:48;;;;;;;78.40;42.13;;;;;;;20.61;80.04;99355.63;5092641;28;20039;-77
2021/08/01 18:30:14;;;;;;;68.25;37.17;;;;;;;20.47;80.61;99344.03;5092294;28;20130;-77
2021/08/01 18:32:40;;;;;;;61.10;35.25;;;;;;;20.42;80.49;99327.59;5111429;28;20119;-78
2021/08/01 18:35:09;;;;;;;56.60;33.15;;;;;;;20.41;80.56;99344.38;5111655;28;20454;-78
2021/08/01 18:37:36;;;;;;;48.47;30.55;;;;;;;20.49;80.91;99349.25;5060560;28;20043;-78
2021/08/01 18:40:03;;;;;;;55.30;33.53;;;;;;;20.40;81.02;99350.66;5093558;28;20130;-79
2021/08/01 18:42:32;;;;;;;60.05;34.63;;;;;;;20.36;80.98;99351.75;5077592;28;20043;-79
2021/08/01 18:44:59;;;;;;;51.28;31.70;;;;;;;20.27;80.57;99345.19;5079834;28;20046;-77
2021/08/01 18:47:26;;;;;;;66.57;36.55;;;;;;;20.26;80.88;99340.84;5113838;28;20531;-78
2021/08/01 18:49:57;;;;;;;49.00;30.88;;;;;;;20.20;81.22;99350.88;5097959;28;20050;-83
2021/08/01 18:52:28;;;;;;;63.20;34.33;;;;;;;20.21;80.85;99368.44;5114616;28;20440;-80
2021/08/01 18:54:56;;;;;;;48.30;29.08;;;;;;;20.10;81.37;99359.34;5076997;28;20202;-83
2021/08/01 18:57:23;;;;;;;41.72;26.70;;;;;;;20.00;81.16;99339.66;5076744;28;20071;-79
2021/08/01 18:59:58;;;;;;;46.95;30.45;;;;;;;19.75;81.21;99309.28;5062360;28;20043;-76
2021/08/01 19:02:29;;;;;;;40.97;29.33;;;;;;;20.04;81.50;99358.84;5076717;28;20047;-81
2021/08/01 19:05:00;;;;;;;45.50;27.52;;;;;;;19.89;81.38;99337.59;5094685;28;20040;-79
2021/08/01 19:07:28;;;;;;;42.38;28.58;;;;;;;19.94;81.38;99363.78;5076219;28;20129;-78
2021/08/01 19:09:57;;;;;;;43.22;27.13;;;;;;;19.76;81.68;99344.47;5045618;28;20071;-81
2021/08/01 19:12:24;;;;;;;37.30;25.88;;;;;;;19.86;81.33;99370.28;5064620;28;20062;-78
2021/08/01 19:14:57;;;;;;;35.25;23.70;;;;;;;19.74;81.59;99365.69;5102160;28;20164;-79
2021/08/01 19:17:43;;;;;;;32.00;23.13;;;;;;;19.73;81.51;99366.63;5068372;28;20055;-79
2021/08/01 19:20:14;;;;;;;26.90;20.95;;;;;;;19.69;81.77;99362.44;5076501;28;20036;-79
2021/08/01 19:23:14;;;;;;;27.10;20.65;;;;;;;19.65;81.73;99368.78;5094600;28;20040;-79
2021/08/01 19:25:48;;;;;;;31.08;20.23;;;;;;;19.48;81.67;99345.94;5063104;28;20040;-80
2021/08/01 19:28:20;;;;;;;27.60;22.05;;;;;;;19.44;82.01;99353.19;5060184;28;20688;-78
2021/08/01 19:30:52;;;;;;;27.63;23.08;;;;;;;19.30;82.29;99330.16;5092345;28;20496;-78
2021/08/01 19:33:19;;;;;;;27.98;22.48;;;;;;;19.46;82.40;99369.78;5101588;28;20044;-78
2021/08/01 19:35:47;;;;;;;24.77;22.08;;;;;;;19.51;82.57;99383.59;5074946;28;20042;-79
2021/08/01 19:38:13;;;;;;;26.85;21.52;;;;;;;19.44;82.70;99370.78;5075275;28;20046;-79
2021/08/01 19:40:41;;;;;;;24.90;21.50;;;;;;;19.11;82.67;99315.31;5077669;28;20099;-78
2021/08/01 19:43:07;;;;;;;20.10;17.65;;;;;;;19.10;82.78;99323.28;5094819;28;20569;-78
2021/08/01 19:45:32;;;;;;;22.73;19.27;;;;;;;19.37;83.04;99373.75;5112449;28;20036;-79
2021/08/01 19:47:59;;;;;;;25.58;21.45;;;;;;;19.18;82.97;99352.75;5077640;28;20080;-79
2021/08/01 19:50:25;;;;;;;23.13;19.88;;;;;;;19.29;83.08;99370.66;5091082;28;20500;-79
2021/08/01 19:52:51;;;;;;;23.77;18.02;;;;;;;19.31;82.83;99376.69;5102453;27;20087;-79
2021/08/01 19:55:17;;;;;;;24.60;20.83;;;;;;;19.26;83.01;99382.22;5101739;28;20408;-77
2021/08/01 19:57:45;;;;;;;28.00;23.85;;;;;;;19.02;82.99;99352.69;5098125;28;20062;-78
2021/08/01 20:00:27;;;;;;;26.50;22.42;;;;;;;19.22;83.03;99379.81;5043871;28;20044;-83
2021/08/01 20:02:58;;;;;;;22.33;19.15;;;;;;;19.15;83.09;99381.06;5079101;28;20066;-79
2021/08/01 20:05:27;;;;;;;29.08;22.58;;;;;;;18.63;83.24;99308.94;5060974;28;20542;-77
2021/08/01 20:07:57;;;;;;;32.05;22.40;;;;;;;19.01;83.43;99379.97;5075606;28;20039;-79
2021/08/01 20:10:23;;;;;;;30.67;23.00;;;;;;;19.06;83.42;99377.13;5076495;28;20043;-77
2021/08/01 20:12:50;;;;;;;28.50;23.02;;;;;;;18.92;83.61;99351.41;5095056;28;20036;-76
2021/08/01 20:15:16;;;;;;;28.08;21.48;;;;;;;18.93;83.51;99363.66;5077715;28;20043;-78
2021/08/01 20:17:42;;;;;;;25.35;20.85;;;;;;;18.98;83.58;99380.13;5111642;28;20420;-78
2021/08/01 20:20:09;;;;;;;26.27;22.27;;;;;;;18.95;83.65;99370.59;5095107;28;20039;-78
2021/08/01 20:22:35;;;;;;;29.67;24.38;;;;;;;18.94;83.55;99373.28;5112793;28;20806;-78
2021/08/01 20:25:04;;;;;;;26.58;22.48;;;;;;;18.96;83.65;99374.94;5077368;28;20134;-77
2021/08/01 20:27:30;;;;;;;32.25;25.95;;;;;;;18.98;83.92;99384.56;5093475;28;20039;-78
2021/08/01 20:29:56;;;;;;;29.58;23.77;;;;;;;19.03;83.98;99390.47;5092504;28;20031;-77
2021/08/01 20:32:22;;;;;;;29.90;25.85;;;;;;;19.04;84.08;99387.72;5109958;28;20110;-79
2021/08/01 20:34:48;;;;;;;28.73;23.60;;;;;;;19.08;84.12;99388.44;5092460;28;20572;-79
2021/08/01 20:37:15;;;;;;;28.98;22.70;;;;;;;19.06;84.13;99372.69;5092670;28;20078;-79
2021/08/01 20:39:41;;;;;;;33.47;25.77;;;;;;;19.10;84.40;99387.41;5076504;28;20559;-79
2021/08/01 20:42:07;;;;;;;31.23;24.15;;;;;;;18.96;84.44;99359.13;5076151;28;20050;-77
2021/08/01 20:44:34;;;;;;;25.15;20.48;;;;;;;19.08;83.98;99393.72;5093338;28;20035;-77
2021/08/01 20:47:00;;;;;;;28.42;23.50;;;;;;;18.94;84.04;99386.47;5092175;28;20138;-79
2021/08/01 20:49:26;;;;;;;28.15;22.15;;;;;;;18.87;84.17;99391.16;5092307;28;20131;-79
2021/08/01 20:51:52;;;;;;;21.80;19.27;;;;;;;18.91;84.09;99408.53;5092037;28;20047;-78
2021/08/01 20:54:19;;;;;;;19.67;17.65;;;;;;;18.67;84.11;99382.47;5096314;28;20043;-77
2021/08/01 20:56:44;;;;;;;20.25;17.48;;;;;;;18.79;84.17;99410.00;5075634;28;20043;-78
2021/08/01 20:59:11;;;;;;;20.42;17.73;;;;;;;18.74;84.22;99414.66;5092616;28;20059;-78
2021/08/01 21:01:37;;;;;;;23.17;19.30;;;;;;;18.71;84.12;99420.09;5109281;28;20395;-80
2021/08/01 21:04:05;;;;;;;35.20;27.73;;;;;;;18.72;84.16;99416.53;5076235;28;20043;-79
2021/08/01 21:06:31;;;;;;;36.15;26.60;;;;;;;18.71;84.20;99403.41;5110372;28;20113;-78
2021/08/01 21:08:58;;;;;;;23.58;20.52;;;;;;;18.75;84.25;99411.09;5110232;28;20411;-78
2021/08/01 21:11:24;;;;;;;26.92;23.10;;;;;;;18.76;84.22;99414.59;5091460;28;20074;-77
2021/08/01 21:13:50;;;;;;;26.38;19.50;;;;;;;18.74;84.40;99408.53;5075243;28;20511;-77
2021/08/01 21:16:15;;;;;;;31.33;25.05;;;;;;;18.76;84.31;99417.22;5091307;28;20603;-76
2021/08/01 21:18:41;;;;;;;29.77;24.15;;;;;;;18.75;84.44;99407.59;5072961;28;20131;-78
2021/08/01 21:21:07;;;;;;;27.00;20.73;;;;;;;18.72;84.38;99407.75;5074558;28;20060;-78
2021/08/01 21:23:33;;;;;;;25.10;19.63;;;;;;;18.76;84.76;99410.16;5109712;28;20040;-78
2021/08/01 21:26:01;;;;;;;23.40;19.75;;;;;;;18.60;84.66;99382.84;5074655;28;20487;-78
2021/08/01 21:28:27;;;;;;;23.08;20.02;;;;;;;18.74;84.47;99405.88;5109071;28;20047;-76